Time;durP1;ratioP1;P1;durP2;ratioP2;P2;SDS_P1;SDS_P2;PMS_P1;PMS_P2;Temp;Humidity;BMP_temperature;BMP_pressure;BME280_temperature;BME280_humidity;BME280_pressure;Samples;Min_cycle;Max_cycle;Signal;HPM_P1;HPM_P2
2022/10/26 00:03:28;;;;;;;0.00;0.00;;;;;;;14.35;62.37;98081.34;8281952;28;20251;-74
2022/10/26 00:07:31;;;;;;;0.00;0.00;;;;;;;14.23;63.03;98077.69;8281889;28;20230;-74
2022/10/26 00:11:36;;;;;;;0.00;0.00;;;;;;;14.29;62.53;98077.34;8282004;28;20225;-74
2022/10/26 00:15:40;;;;;;;0.00;0.00;;;;;;;14.33;62.50;98072.78;8281569;28;20233;-74
2022/10/26 00:19:43;;;;;;;0.00;0.00;;;;;;;14.24;62.82;98075.00;8281815;28;20244;-74
2022/10/26 00:23:46;;;;;;;0.00;0.00;;;;;;;14.27;62.97;98069.59;8281903;28;20237;-74
2022/10/26 00:27:50;;;;;;;0.00;0.00;;;;;;;14.30;62.94;98079.03;8281715;28;20448;-74
2022/10/26 00:31:53;;;;;;;0.00;0.00;;;;;;;14.30;62.94;98076.44;8273168;28;20237;-73
2022/10/26 00:35:56;;;;;;;0.03;0.03;;;;;;;14.28;63.01;98071.31;8281625;28;20233;-74
2022/10/26 00:39:59;;;;;;;0.00;0.00;;;;;;;14.34;63.28;98071.88;8281404;28;20269;-74
2022/10/26 00:44:46;;;;;;;0.00;0.00;;;;;;;14.34;63.07;98072.72;8281346;28;20297;-74
2022/10/26 00:48:52;;;;;;;0.00;0.00;;;;;;;14.42;62.74;98064.44;8282219;28;20233;-74
2022/10/26 00:52:55;;;;;;;0.03;0.03;;;;;;;14.34;63.18;98070.09;8279289;28;20295;-74
2022/10/26 00:56:58;;;;;;;0.00;0.00;;;;;;;14.38;63.39;98050.75;8286990;28;20283;-74
2022/10/26 01:01:02;;;;;;;0.00;0.00;;;;;;;14.37;63.37;98049.06;8286599;28;20241;-74
2022/10/26 01:05:06;;;;;;;0.00;0.00;;;;;;;14.50;63.05;98036.16;8286688;28;20303;-74
2022/10/26 01:09:10;;;;;;;0.00;0.00;;;;;;;14.47;63.22;98031.16;8286702;28;20252;-74
2022/10/26 01:13:13;;;;;;;0.00;0.00;;;;;;;14.43;63.22;98022.69;8286742;28;20400;-74
2022/10/26 01:17:31;;;;;;;0.00;0.00;;;;;;;14.38;63.49;98031.69;8286258;28;20229;-74
2022/10/26 01:21:47;;;;;;;0.00;0.00;;;;;;;14.23;63.87;98028.22;8286167;28;20263;-74
2022/10/26 01:26:28;;;;;;;0.00;0.00;;;;;;;14.21;63.58;98045.69;8286182;28;20276;-74
2022/10/26 01:30:37;;;;;;;0.07;0.07;;;;;;;14.23;64.13;98038.63;8210477;28;20272;-74
2022/10/26 01:34:43;;;;;;;0.00;0.00;;;;;;;14.13;64.50;98040.09;8285974;28;20234;-74
2022/10/26 01:38:53;;;;;;;0.10;0.10;;;;;;;14.27;63.92;98040.97;8285723;28;20233;-74
2022/10/26 01:42:58;;;;;;;0.00;0.00;;;;;;;14.27;64.09;98042.72;8277715;28;20296;-74
2022/10/26 01:47:03;;;;;;;0.00;0.00;;;;;;;14.32;64.16;98042.44;8285044;28;20229;-74
2022/10/26 01:51:06;;;;;;;0.00;0.00;;;;;;;14.04;64.96;98044.06;8285230;28;20257;-74
2022/10/26 01:55:42;;;;;;;0.00;0.00;;;;;;;14.34;63.72;98044.06;8285439;28;20425;-74
2022/10/26 01:59:56;;;;;;;0.00;0.00;;;;;;;14.36;63.34;98030.94;8285081;28;20245;-74
2022/10/26 02:04:06;;;;;;;0.00;0.00;;;;;;;14.36;63.72;98025.75;8276857;28;20233;-74
2022/10/26 02:08:27;;;;;;;0.00;0.00;;;;;;;14.42;63.61;98038.41;8284943;28;20402;-74
2022/10/26 02:12:36;;;;;;;0.00;0.00;;;;;;;14.50;63.42;98056.19;8284606;28;20233;-74
2022/10/26 02:16:47;;;;;;;0.00;0.00;;;;;;;14.63;62.95;98057.16;8284429;28;20229;-74
2022/10/26 02:20:54;;;;;;;0.00;0.00;;;;;;;14.54;63.62;98053.28;8284372;28;20330;-74
2022/10/26 02:24:59;;;;;;;0.00;0.00;;;;;;;14.46;63.50;98032.91;8283902;28;20236;-74
2022/10/26 02:29:05;;;;;;;0.00;0.00;;;;;;;14.44;63.84;98023.50;8284218;28;20238;-74
2022/10/26 02:33:11;;;;;;;0.00;0.00;;;;;;;14.42;63.53;98015.78;8283889;28;20237;-74
2022/10/26 02:37:16;;;;;;;0.00;0.00;;;;;;;14.48;63.92;98030.22;8283766;28;20236;-74
2022/10/26 02:41:20;;;;;;;0.00;0.00;;;;;;;14.49;63.65;98031.91;8283623;28;20238;-74
2022/10/26 02:45:26;;;;;;;0.00;0.00;;;;;;;14.46;63.78;98035.50;8283712;28;20229;-74
2022/10/26 02:49:28;;;;;;;0.00;0.00;;;;;;;14.45;64.00;98030.41;8283327;28;20225;-74
2022/10/26 02:53:37;;;;;;;0.00;0.00;;;;;;;14.52;63.79;98039.53;8283376;28;20293;-74
2022/10/26 02:57:42;;;;;;;0.00;0.00;;;;;;;14.52;63.54;98023.88;8283273;28;20245;-74
2022/10/26 03:01:44;;;;;;;0.00;0.00;;;;;;;14.53;63.87;98027.34;8282979;28;20245;-74
2022/10/26 03:05:48;;;;;;;0.00;0.00;;;;;;;14.51;63.89;98021.38;8282842;28;20238;-74
2022/10/26 03:09:52;;;;;;;0.03;0.03;;;;;;;14.47;63.74;98020.72;8282997;28;20237;-74
2022/10/26 03:13:54;;;;;;;0.00;0.00;;;;;;;14.48;63.55;98025.00;8266372;28;20265;-74
2022/10/26 03:17:57;;;;;;;0.00;0.00;;;;;;;14.55;63.57;98023.72;8282552;28;20556;-73
2022/10/26 03:22:00;;;;;;;0.00;0.00;;;;;;;14.52;63.62;98029.09;8282461;28;20238;-74
2022/10/26 03:26:04;;;;;;;0.00;0.00;;;;;;;13.86;66.22;98020.75;8282601;28;20233;-74
2022/10/26 03:30:08;;;;;;;0.00;0.00;;;;;;;14.37;64.11;98024.78;8281993;28;20540;-73
2022/10/26 03:34:12;;;;;;;0.00;0.00;;;;;;;14.49;64.09;98018.88;8281608;28;20356;-73
2022/10/26 03:38:15;;;;;;;0.00;0.00;;;;;;;14.25;64.76;98018.53;8281925;28;20295;-74
2022/10/26 03:42:19;;;;;;;0.00;0.00;;;;;;;14.28;64.46;98013.16;8281487;28;20253;-73
2022/10/26 03:46:22;;;;;;;0.00;0.00;;;;;;;14.45;64.45;98005.19;8281178;28;20229;-73
2022/10/26 03:50:25;;;;;;;0.00;0.00;;;;;;;14.42;64.17;98013.19;8281497;28;20253;-73
2022/10/26 03:54:28;;;;;;;0.00;0.00;;;;;;;14.50;64.08;98015.31;8281649;28;20234;-73
2022/10/26 03:58:32;;;;;;;0.00;0.00;;;;;;;14.56;64.03;98022.75;8281886;28;20292;-73
2022/10/26 04:02:35;;;;;;;0.00;0.00;;;;;;;14.40;65.05;98022.03;8281439;28;20244;-73
2022/10/26 04:06:37;;;;;;;0.00;0.00;;;;;;;14.53;64.75;98017.75;8281828;28;20316;-73
2022/10/26 04:10:40;;;;;;;0.00;0.00;;;;;;;14.45;64.93;98020.81;8281770;28;20288;-73
2022/10/26 04:14:44;;;;;;;0.00;0.00;;;;;;;14.31;65.79;98022.56;8281465;28;20233;-73
2022/10/26 04:18:47;;;;;;;0.00;0.00;;;;;;;14.48;65.56;98028.44;8281561;28;20233;-73
2022/10/26 04:22:57;;;;;;;0.10;0.10;;;;;;;14.57;64.93;98034.91;8281331;28;20292;-73
2022/10/26 04:27:00;;;;;;;0.00;0.00;;;;;;;14.59;64.96;98029.63;8286803;28;20237;-73
2022/10/26 04:31:05;;;;;;;0.00;0.00;;;;;;;14.35;65.62;98039.69;8287687;28;20245;-73
2022/10/26 04:35:08;;;;;;;0.00;0.00;;;;;;;14.51;65.05;98040.47;8287415;28;20559;-73
2022/10/26 04:39:16;;;;;;;0.00;0.00;;;;;;;14.43;65.75;98029.63;8287574;28;20240;-73
2022/10/26 04:43:19;;;;;;;0.00;0.00;;;;;;;14.38;65.05;98035.13;8287230;28;20233;-73
2022/10/26 04:47:23;;;;;;;0.00;0.00;;;;;;;14.29;65.65;98030.44;8287299;28;20230;-73
2022/10/26 04:51:26;;;;;;;0.00;0.00;;;;;;;14.27;65.92;98030.53;8287035;28;20237;-72
2022/10/26 04:55:29;;;;;;;0.00;0.00;;;;;;;14.16;67.05;98027.72;8286872;28;20241;-74
2022/10/26 04:59:32;;;;;;;0.00;0.00;;;;;;;13.79;68.49;98034.22;8287007;28;20236;-75
2022/10/26 05:03:36;;;;;;;0.00;0.00;;;;;;;13.77;68.44;98034.28;8286551;28;20238;-75
2022/10/26 05:07:39;;;;;;;0.00;0.00;;;;;;;13.40;69.20;98043.28;8286596;28;20422;-74
2022/10/26 05:11:41;;;;;;;0.00;0.00;;;;;;;14.03;67.69;98038.03;8286410;28;20233;-75
2022/10/26 05:15:44;;;;;;;0.00;0.00;;;;;;;14.13;67.37;98038.34;8286301;28;20559;-74
2022/10/26 05:19:54;;;;;;;0.00;0.00;;;;;;;14.27;67.06;98033.16;8285813;28;20226;-74
2022/10/26 05:23:56;;;;;;;0.00;0.00;;;;;;;14.36;66.73;98046.56;8278135;28;20513;-71
2022/10/26 05:28:00;;;;;;;0.00;0.00;;;;;;;14.45;66.55;98052.09;8285697;28;20237;-74
2022/10/26 05:32:02;;;;;;;0.00;0.00;;;;;;;14.40;66.76;98054.13;8286063;28;20240;-73
2022/10/26 05:36:07;;;;;;;0.00;0.00;;;;;;;14.51;66.20;98032.66;8284078;28;20233;-73
2022/10/26 05:40:11;;;;;;;0.00;0.00;;;;;;;14.51;66.65;98035.25;8285312;28;20256;-73
2022/10/26 05:44:14;;;;;;;0.00;0.00;;;;;;;14.53;66.74;98025.56;8285287;28;20286;-73
2022/10/26 05:48:17;;;;;;;0.00;0.00;;;;;;;14.44;67.14;98028.72;8285263;28;20230;-73
2022/10/26 05:52:21;;;;;;;0.00;0.00;;;;;;;14.28;67.55;98037.44;8285031;28;20284;-73
2022/10/26 05:56:34;;;;;;;0.00;0.00;;;;;;;14.35;67.55;98039.69;8284833;28;20424;-73
2022/10/26 06:00:42;;;;;;;0.07;0.07;;;;;;;14.24;68.00;98035.94;8284638;28;20249;-73
2022/10/26 06:04:47;;;;;;;0.00;0.00;;;;;;;14.33;68.12;98033.72;8284275;28;20237;-73
2022/10/26 06:08:51;;;;;;;0.10;0.10;;;;;;;14.34;68.35;98040.63;8284346;28;20240;-73
2022/10/26 06:12:55;;;;;;;0.00;0.00;;;;;;;14.07;68.82;98025.66;8284056;28;20234;-73
2022/10/26 06:17:17;;;;;;;0.00;0.00;;;;;;;14.44;67.73;98046.97;8284602;28;20404;-73
2022/10/26 06:21:28;;;;;;;0.00;0.00;;;;;;;14.53;67.14;98056.84;8284089;28;20225;-74
2022/10/26 06:25:43;;;;;;;0.00;0.00;;;;;;;14.53;67.44;98066.44;8284258;28;20263;-73
2022/10/26 06:29:52;;;;;;;0.00;0.00;;;;;;;14.51;67.44;98050.03;8283954;28;20256;-73
2022/10/26 06:33:58;;;;;;;0.00;0.00;;;;;;;14.57;67.77;98053.16;8275571;28;20240;-73
2022/10/26 06:38:07;;;;;;;0.00;0.00;;;;;;;14.11;69.93;98067.97;8283529;28;20234;-74
2022/10/26 06:42:12;;;;;;;0.00;0.00;;;;;;;14.56;67.81;98064.47;8283404;28;20238;-73
2022/10/26 06:46:26;;;;;;;0.00;0.00;;;;;;;14.59;68.17;98050.47;8282803;28;20233;-73
2022/10/26 06:50:33;;;;;;;0.00;0.00;;;;;;;14.58;68.62;98053.97;8283259;28;20229;-75
2022/10/26 06:54:46;;;;;;;0.00;0.00;;;;;;;14.85;67.63;98046.31;8283230;28;20226;-73
2022/10/26 06:58:52;;;;;;;0.00;0.00;;;;;;;14.72;68.63;98040.97;8283398;28;20237;-71
2022/10/26 07:02:57;;;;;;;0.07;0.07;;;;;;;14.95;67.46;98036.97;8274549;28;20245;-76
2022/10/26 07:06:59;;;;;;;0.00;0.00;;;;;;;15.18;66.76;98045.16;8283188;28;20253;-76
2022/10/26 07:11:03;;;;;;;0.00;0.00;;;;;;;15.25;67.21;98057.72;8282616;28;20244;-75
2022/10/26 07:15:11;;;;;;;0.00;0.00;;;;;;;15.32;67.16;98073.84;8282819;28;20233;-75
2022/10/26 07:19:14;;;;;;;0.00;0.00;;;;;;;15.30;67.40;98088.75;8282955;28;20430;-74
2022/10/26 07:23:18;;;;;;;0.00;0.00;;;;;;;14.93;69.38;98101.44;8283022;28;20233;-75
2022/10/26 07:27:22;;;;;;;0.00;0.00;;;;;;;15.07;68.20;98099.75;8282828;28;20233;-75
2022/10/26 07:31:29;;;;;;;0.00;0.00;;;;;;;15.19;68.49;98112.03;8282511;28;20295;-75
2022/10/26 07:35:33;;;;;;;0.00;0.00;;;;;;;15.17;68.24;98119.13;8282783;28;20233;-75
2022/10/26 07:39:37;;;;;;;0.00;0.00;;;;;;;15.19;68.71;98110.28;8283145;28;20523;-75
2022/10/26 07:43:44;;;;;;;0.00;0.00;;;;;;;15.31;68.00;98113.09;8281474;28;20564;-75
2022/10/26 07:47:53;;;;;;;0.00;0.00;;;;;;;15.09;69.12;98118.75;8282909;28;20244;-74
2022/10/26 07:52:01;;;;;;;0.00;0.00;;;;;;;15.15;69.12;98118.38;8280821;28;20280;-73
2022/10/26 07:56:09;;;;;;;0.10;0.10;;;;;;;15.18;69.13;98129.47;8282864;28;20241;-72
2022/10/26 08:00:13;;;;;;;0.00;0.00;;;;;;;15.23;69.11;98130.03;8284230;28;20301;-72
2022/10/26 08:04:18;;;;;;;0.00;0.00;;;;;;;15.35;68.42;98127.63;8288662;28;20233;-73
2022/10/26 08:08:25;;;;;;;0.00;0.00;;;;;;;15.21;68.65;98129.28;8288894;28;20228;-73
2022/10/26 08:12:29;;;;;;;0.00;0.00;;;;;;;15.32;69.01;98143.44;8289374;28;20243;-73
2022/10/26 08:16:33;;;;;;;0.00;0.00;;;;;;;15.40;68.48;98149.88;8288351;28;20233;-73
2022/10/26 08:20:42;;;;;;;0.00;0.00;;;;;;;15.23;69.37;98144.84;8288847;28;20229;-73
2022/10/26 08:24:46;;;;;;;0.00;0.00;;;;;;;15.23;68.89;98150.91;8287917;28;20340;-74
2022/10/26 08:28:50;;;;;;;0.00;0.00;;;;;;;15.36;68.98;98148.38;8288893;28;20433;-75
2022/10/26 08:32:59;;;;;;;0.00;0.00;;;;;;;15.53;68.56;98152.56;8287256;28;20529;-75
2022/10/26 08:37:04;;;;;;;0.00;0.00;;;;;;;15.51;68.61;98151.00;8287801;28;20244;-74
2022/10/26 08:41:14;;;;;;;0.07;0.07;;;;;;;15.61;68.48;98154.69;8287240;28;20248;-75
2022/10/26 08:45:27;;;;;;;0.00;0.00;;;;;;;15.71;68.55;98147.16;8286483;28;20276;-75
2022/10/26 08:49:41;;;;;;;0.00;0.00;;;;;;;15.96;67.36;98155.16;8286206;28;20238;-74
2022/10/26 08:53:50;;;;;;;0.00;0.00;;;;;;;15.87;68.63;98158.34;8286152;28;20257;-74
2022/10/26 08:57:54;;;;;;;0.00;0.00;;;;;;;15.98;69.15;98162.88;8285363;28;20248;-75
2022/10/26 09:01:57;;;;;;;0.00;0.00;;;;;;;16.32;68.13;98158.13;8285831;28;20267;-74
2022/10/26 09:06:09;;;;;;;0.00;0.00;;;;;;;16.39;67.31;98156.78;8283871;28;20337;-75
2022/10/26 09:10:35;;;;;;;0.00;0.00;;;;;;;16.41;66.84;98163.59;8284656;28;20242;-75
2022/10/26 09:14:47;;;;;;;0.00;0.00;;;;;;;16.36;67.51;98162.22;8284556;28;20252;-75
2022/10/26 09:18:54;;;;;;;0.00;0.00;;;;;;;16.65;66.79;98178.59;8284655;28;20556;-74
2022/10/26 09:23:10;;;;;;;0.00;0.00;;;;;;;16.76;66.57;98177.91;8284327;28;20233;-74
2022/10/26 09:27:18;;;;;;;0.00;0.00;;;;;;;16.86;65.85;98170.31;8284408;28;20226;-74
2022/10/26 09:31:22;;;;;;;0.00;0.00;;;;;;;17.15;65.43;98178.81;8284506;28;20233;-76
2022/10/26 09:35:26;;;;;;;0.00;0.00;;;;;;;17.36;64.10;98172.13;8284590;28;20237;-73
2022/10/26 09:39:39;;;;;;;0.00;0.00;;;;;;;17.37;63.47;98181.63;8284473;28;20221;-74
2022/10/26 09:43:49;;;;;;;0.00;0.00;;;;;;;17.43;63.77;98184.78;8283686;28;20545;-73
2022/10/26 09:47:53;;;;;;;0.00;0.00;;;;;;;17.65;63.64;98176.25;8283915;28;20408;-73
2022/10/26 09:51:57;;;;;;;0.00;0.00;;;;;;;17.73;63.63;98177.41;8275921;28;20237;-73
2022/10/26 09:56:05;;;;;;;0.00;0.00;;;;;;;17.78;63.88;98193.66;8283694;28;20252;-74
2022/10/26 10:00:15;;;;;;;0.00;0.00;;;;;;;18.43;61.99;98199.56;8283668;28;20234;-73
2022/10/26 10:04:21;;;;;;;0.00;0.00;;;;;;;18.24;62.09;98197.44;8246119;28;1096791;-74
2022/10/26 10:08:25;;;;;;;0.00;0.00;;;;;;;18.69;61.38;98197.63;8285035;28;20449;-74
2022/10/26 10:12:28;;;;;;;0.00;0.00;;;;;;;19.01;59.71;98193.59;8284717;28;20517;-73
2022/10/26 10:16:32;;;;;;;0.00;0.00;;;;;;;18.63;60.25;98207.75;8284990;28;20329;-74
2022/10/26 10:20:35;;;;;;;0.00;0.00;;;;;;;18.61;60.73;98207.84;8284655;28;20283;-74
2022/10/26 10:24:40;;;;;;;0.00;0.00;;;;;;;18.82;60.44;98215.94;8283737;28;20253;-74
2022/10/26 10:28:43;;;;;;;0.00;0.00;;;;;;;18.92;59.78;98210.84;8284498;28;20239;-73
2022/10/26 10:33:04;;;;;;;0.00;0.00;;;;;;;18.89;60.23;98224.22;8284278;28;20510;-73
2022/10/26 10:37:07;;;;;;;0.00;0.00;;;;;;;18.78;60.64;98211.84;8277787;28;20254;-73
2022/10/26 10:41:18;;;;;;;0.00;0.00;;;;;;;18.64;60.80;98222.50;8283916;28;20317;-73
2022/10/26 10:45:22;;;;;;;0.00;0.00;;;;;;;18.51;61.77;98227.84;8283960;28;20542;-73
2022/10/26 10:49:28;;;;;;;0.00;0.00;;;;;;;18.39;62.38;98228.72;8284270;28;20257;-72
2022/10/26 10:53:35;;;;;;;0.00;0.00;;;;;;;18.42;62.46;98225.88;8283964;28;20259;-73
2022/10/26 10:57:51;;;;;;;0.00;0.00;;;;;;;18.54;61.59;98227.59;8283334;28;20239;-73
2022/10/26 11:02:11;;;;;;;0.00;0.00;;;;;;;18.66;61.80;98234.59;8275205;28;20253;-73
2022/10/26 11:06:19;;;;;;;0.00;0.00;;;;;;;18.59;61.46;98235.97;8283162;28;20509;-72
2022/10/26 11:10:24;;;;;;;0.00;0.00;;;;;;;18.52;62.11;98237.38;8282934;28;20232;-73
2022/10/26 11:14:30;;;;;;;0.00;0.00;;;;;;;18.56;62.02;98244.06;8282972;28;20233;-73
2022/10/26 11:18:36;;;;;;;0.00;0.00;;;;;;;18.49;62.38;98253.34;8283030;28;20234;-74
2022/10/26 11:22:44;;;;;;;0.00;0.00;;;;;;;18.40;62.97;98244.34;8282685;28;20233;-73
2022/10/26 11:26:51;;;;;;;0.00;0.00;;;;;;;18.51;62.66;98251.44;8282165;28;20238;-73
2022/10/26 11:30:57;;;;;;;0.00;0.00;;;;;;;18.58;63.04;98249.19;8274275;28;20425;-73
2022/10/26 11:35:04;;;;;;;0.00;0.00;;;;;;;18.65;61.97;98248.63;8282251;28;20243;-73
2022/10/26 11:39:16;;;;;;;0.00;0.00;;;;;;;18.97;62.03;98245.47;8282254;28;20526;-73
2022/10/26 11:43:23;;;;;;;0.00;0.00;;;;;;;19.06;62.07;98247.41;8281290;28;20242;-73
2022/10/26 11:47:33;;;;;;;0.00;0.00;;;;;;;19.19;61.68;98244.72;8282194;28;20466;-74
2022/10/26 11:51:43;;;;;;;0.00;0.00;;;;;;;19.19;61.34;98252.59;8282136;28;20226;-74
2022/10/26 11:55:49;;;;;;;0.00;0.00;;;;;;;19.22;61.72;98262.84;8282391;28;20239;-73
2022/10/26 11:59:55;;;;;;;0.00;0.00;;;;;;;19.23;61.44;98261.03;8281332;28;20281;-74
2022/10/26 12:03:59;;;;;;;0.00;0.00;;;;;;;19.34;61.35;98261.06;8281748;28;20241;-73
2022/10/26 12:08:06;;;;;;;0.00;0.00;;;;;;;19.34;61.30;98264.56;8281924;28;20259;-74
2022/10/26 12:12:16;;;;;;;0.00;0.00;;;;;;;19.22;62.56;98269.88;8281879;28;20429;-73
2022/10/26 12:16:22;;;;;;;0.00;0.00;;;;;;;19.22;62.31;98267.25;8281714;28;20256;-73
2022/10/26 12:21:01;;;;;;;0.10;0.10;;;;;;;19.20;62.63;98270.00;8281724;28;20226;-73
2022/10/26 12:25:18;;;;;;;0.00;0.00;;;;;;;19.20;62.53;98275.25;8266782;28;20240;-73
2022/10/26 12:29:35;;;;;;;0.00;0.00;;;;;;;19.04;63.17;98275.56;8281575;28;20234;-73
2022/10/26 12:33:49;;;;;;;0.00;0.00;;;;;;;18.89;63.73;98274.91;8281274;28;20242;-70
2022/10/26 12:37:51;;;;;;;0.00;0.00;;;;;;;19.00;64.17;98268.00;8281701;28;20242;-73
2022/10/26 12:41:57;;;;;;;0.00;0.00;;;;;;;19.27;63.25;98273.03;8281088;28;20242;-73
2022/10/26 12:46:43;;;;;;;0.00;0.00;;;;;;;20.09;62.21;98273.72;8283835;28;20247;-73
2022/10/26 12:50:48;;;;;;;0.00;0.00;;;;;;;19.78;62.16;98272.66;8287478;28;20234;-73
2022/10/26 12:55:15;;;;;;;0.00;0.00;;;;;;;19.65;62.21;98271.91;8287338;28;20646;-74
2022/10/26 12:59:23;;;;;;;0.00;0.00;;;;;;;19.57;62.29;98274.25;8284776;28;20225;-74
2022/10/26 13:03:32;;;;;;;0.00;0.00;;;;;;;19.41;63.09;98271.97;8286759;28;20239;-73
2022/10/26 13:07:37;;;;;;;0.00;0.00;;;;;;;19.59;63.14;98270.56;8286850;28;20231;-72
2022/10/26 13:11:45;;;;;;;0.00;0.00;;;;;;;19.75;63.10;98280.75;8286876;28;20245;-71
2022/10/26 13:15:53;;;;;;;0.00;0.00;;;;;;;20.20;61.82;98274.66;8286891;28;20241;-73
2022/10/26 13:19:57;;;;;;;0.00;0.00;;;;;;;20.71;60.80;98274.09;8286019;28;20244;-73
2022/10/26 13:24:04;;;;;;;0.00;0.00;;;;;;;20.94;60.80;98287.19;8286217;28;20317;-74
2022/10/26 13:28:28;;;;;;;0.00;0.00;;;;;;;21.37;58.82;98281.00;8286337;28;20239;-74
2022/10/26 13:32:34;;;;;;;0.00;0.00;;;;;;;21.39;55.88;98282.53;8286092;28;20238;-74
2022/10/26 13:36:39;;;;;;;0.00;0.00;;;;;;;21.76;54.64;98286.53;8286228;28;20233;-74
2022/10/26 13:40:43;;;;;;;0.00;0.00;;;;;;;22.05;54.44;98297.22;8286045;28;20252;-74
2022/10/26 13:44:51;;;;;;;0.00;0.00;;;;;;;21.98;54.13;98290.81;8285924;28;20251;-73
2022/10/26 13:48:59;;;;;;;0.00;0.00;;;;;;;21.55;54.92;98305.00;8277567;28;20260;-74
2022/10/26 13:53:07;;;;;;;0.00;0.00;;;;;;;21.47;54.71;98306.47;8285722;28;20427;-74
2022/10/26 13:57:16;;;;;;;0.00;0.00;;;;;;;22.06;53.54;98302.34;8284309;28;20241;-74
2022/10/26 14:01:21;;;;;;;0.00;0.00;;;;;;;22.22;53.66;98311.59;8285157;28;20292;-74
2022/10/26 14:05:24;;;;;;;0.00;0.00;;;;;;;22.13;53.07;98315.84;8284866;28;20240;-74
2022/10/26 14:09:29;;;;;;;0.00;0.00;;;;;;;22.27;53.26;98314.69;8285237;28;20229;-74
2022/10/26 14:13:34;;;;;;;0.00;0.00;;;;;;;22.43;53.58;98309.75;8285033;28;20528;-74
2022/10/26 14:17:43;;;;;;;0.00;0.00;;;;;;;22.48;53.70;98327.78;8284585;28;20233;-74
2022/10/26 14:21:48;;;;;;;0.00;0.00;;;;;;;22.52;53.24;98331.84;8284823;28;20421;-74
2022/10/26 14:25:53;;;;;;;0.00;0.00;;;;;;;22.54;53.24;98336.97;8284505;28;20244;-74
2022/10/26 14:30:02;;;;;;;0.00;0.00;;;;;;;21.73;54.30;98343.00;8277028;28;20306;-74
2022/10/26 14:34:24;;;;;;;0.00;0.00;;;;;;;21.58;55.93;98344.28;8284155;28;20341;-74
2022/10/26 14:38:29;;;;;;;0.00;0.00;;;;;;;21.17;56.51;98345.84;8284217;28;20228;-74
2022/10/26 14:42:33;;;;;;;0.00;0.00;;;;;;;20.93;57.61;98346.91;8284035;28;20229;-74
2022/10/26 14:46:37;;;;;;;0.00;0.00;;;;;;;20.84;58.31;98351.09;8283858;28;20230;-74
2022/10/26 14:50:41;;;;;;;0.00;0.00;;;;;;;20.72;59.05;98346.00;8283848;28;20233;-74
2022/10/26 14:54:57;;;;;;;0.00;0.00;;;;;;;20.60;63.48;98350.44;8283743;28;20229;-75
2022/10/26 14:58:59;;;;;;;0.00;0.00;;;;;;;20.45;63.88;98350.69;8282946;28;20472;-75
2022/10/26 15:03:04;;;;;;;0.00;0.00;;;;;;;20.39;64.08;98351.16;8283166;28;20253;-75
2022/10/26 15:07:16;;;;;;;0.00;0.00;;;;;;;20.38;63.58;98356.53;8283582;28;20244;-74
2022/10/26 15:11:19;;;;;;;0.00;0.00;;;;;;;20.29;64.08;98366.81;8283324;28;20225;-74
2022/10/26 15:15:23;;;;;;;0.00;0.00;;;;;;;20.22;61.69;98368.25;8282505;28;20237;-74
2022/10/26 15:19:27;;;;;;;0.00;0.00;;;;;;;20.07;62.19;98374.69;8283028;28;20543;-73
2022/10/26 15:23:31;;;;;;;0.00;0.00;;;;;;;20.04;61.07;98377.56;8282651;28;20236;-74
2022/10/26 15:27:34;;;;;;;0.00;0.00;;;;;;;19.91;62.41;98380.28;8282778;28;20233;-74
2022/10/26 15:31:37;;;;;;;0.00;0.00;;;;;;;19.84;62.31;98381.72;8282647;28;20221;-75
2022/10/26 15:35:41;;;;;;;0.00;0.00;;;;;;;19.82;62.36;98396.75;8282124;28;20240;-72
2022/10/26 15:39:44;;;;;;;0.00;0.00;;;;;;;19.75;62.84;98393.75;8282487;28;20243;-74
2022/10/26 15:43:47;;;;;;;0.00;0.00;;;;;;;19.66;62.88;98387.34;8282093;28;20235;-74
2022/10/26 15:47:51;;;;;;;0.00;0.00;;;;;;;19.63;61.79;98392.00;8282259;28;20240;-73
2022/10/26 15:51:56;;;;;;;0.00;0.00;;;;;;;19.57;62.40;98398.53;8266065;28;20282;-74
2022/10/26 15:56:00;;;;;;;0.00;0.00;;;;;;;19.54;62.99;98401.41;8282079;28;20244;-74
2022/10/26 16:00:05;;;;;;;0.00;0.00;;;;;;;19.48;63.37;98400.06;8282211;28;20241;-74
2022/10/26 16:04:09;;;;;;;0.00;0.00;;;;;;;19.42;64.24;98405.78;8281702;28;20244;-74
2022/10/26 16:08:15;;;;;;;0.00;0.00;;;;;;;19.38;63.59;98399.09;8282106;28;20531;-73
2022/10/26 16:12:20;;;;;;;0.00;0.00;;;;;;;19.32;64.94;98405.63;8282075;28;20239;-73
2022/10/26 16:16:23;;;;;;;0.00;0.00;;;;;;;19.27;64.37;98414.81;8281143;28;20248;-74
2022/10/26 16:20:27;;;;;;;0.00;0.00;;;;;;;19.26;64.87;98423.59;8283407;28;20235;-74
2022/10/26 16:24:31;;;;;;;0.00;0.00;;;;;;;19.18;65.44;98420.72;8288238;28;20419;-74
2022/10/26 16:28:36;;;;;;;0.00;0.00;;;;;;;19.20;64.86;98427.53;8288256;28;20238;-74
2022/10/26 16:32:38;;;;;;;0.00;0.00;;;;;;;19.13;65.43;98432.38;8287990;28;20232;-74
2022/10/26 16:36:41;;;;;;;0.00;0.00;;;;;;;19.08;65.90;98442.38;8287995;28;20239;-75
2022/10/26 16:40:45;;;;;;;0.00;0.00;;;;;;;19.09;65.71;98441.41;8287937;28;20444;-74
2022/10/26 16:44:48;;;;;;;0.00;0.00;;;;;;;19.08;65.89;98447.63;8287871;28;20468;-74
2022/10/26 16:48:51;;;;;;;0.00;0.00;;;;;;;19.05;65.52;98455.69;8287485;28;20244;-73
2022/10/26 16:52:54;;;;;;;0.00;0.00;;;;;;;19.00;65.68;98460.47;8286959;28;20431;-74
2022/10/26 16:56:58;;;;;;;0.00;0.00;;;;;;;18.98;65.83;98458.88;8287534;28;20418;-74
2022/10/26 17:01:01;;;;;;;0.00;0.00;;;;;;;18.94;65.59;98463.50;8287350;28;20237;-74
2022/10/26 17:05:05;;;;;;;0.00;0.00;;;;;;;18.89;65.65;98473.50;8286796;28;20241;-76
2022/10/26 17:09:09;;;;;;;0.00;0.00;;;;;;;18.86;65.53;98478.94;8286833;28;20479;-74
2022/10/26 17:13:13;;;;;;;0.00;0.00;;;;;;;18.80;65.63;98477.59;8286683;28;23436;-74
2022/10/26 17:17:16;;;;;;;0.00;0.00;;;;;;;18.72;65.97;98485.13;8286776;28;20232;-74
2022/10/26 17:21:20;;;;;;;0.00;0.00;;;;;;;18.68;65.55;98494.19;8286585;28;20239;-74
2022/10/26 17:25:23;;;;;;;0.00;0.00;;;;;;;18.51;66.22;98498.78;8286509;28;20437;-74
2022/10/26 17:29:27;;;;;;;0.00;0.00;;;;;;;18.46;65.83;98506.13;8286356;28;20244;-75
2022/10/26 17:33:32;;;;;;;0.00;0.00;;;;;;;18.39;66.13;98520.63;8286367;28;20235;-74
2022/10/26 17:37:36;;;;;;;0.00;0.00;;;;;;;18.38;66.00;98523.34;8286423;28;20235;-74
2022/10/26 17:41:39;;;;;;;0.00;0.00;;;;;;;18.42;65.75;98532.66;8286272;28;20301;-82
2022/10/26 17:45:43;;;;;;;0.00;0.00;;;;;;;18.34;65.86;98533.19;8286522;28;20238;-79
2022/10/26 17:49:46;;;;;;;0.00;0.00;;;;;;;18.27;66.14;98542.41;8286570;28;20230;-74
2022/10/26 17:53:50;;;;;;;0.00;0.00;;;;;;;18.22;66.27;98537.47;8285684;28;20239;-75
2022/10/26 17:57:52;;;;;;;0.00;0.00;;;;;;;18.19;66.07;98542.06;8285104;28;20239;-74
2022/10/26 18:01:57;;;;;;;0.00;0.00;;;;;;;18.21;65.79;98554.13;8285106;28;20241;-75
2022/10/26 18:06:00;;;;;;;0.00;0.00;;;;;;;18.22;65.71;98562.81;8284714;28;20564;-75
2022/10/26 18:10:03;;;;;;;0.00;0.00;;;;;;;18.10;66.38;98559.22;8285221;28;20233;-75
2022/10/26 18:14:26;;;;;;;0.00;0.00;;;;;;;18.10;66.36;98562.69;8285077;28;20241;-74
2022/10/26 18:18:30;;;;;;;0.00;0.00;;;;;;;18.05;65.90;98575.28;8284805;28;20537;-74
2022/10/26 18:22:33;;;;;;;0.00;0.00;;;;;;;17.96;66.00;98573.25;8284466;28;20236;-75
2022/10/26 18:26:36;;;;;;;0.00;0.00;;;;;;;17.83;65.99;98577.56;8284675;28;20583;-74
2022/10/26 18:30:39;;;;;;;0.00;0.00;;;;;;;17.73;66.17;98582.56;8284376;28;20230;-74
2022/10/26 18:34:43;;;;;;;0.00;0.00;;;;;;;17.73;66.27;98583.41;8284127;28;20233;-74
2022/10/26 18:38:47;;;;;;;0.00;0.00;;;;;;;17.65;66.17;98579.56;8284097;28;20247;-74
2022/10/26 18:42:50;;;;;;;0.00;0.00;;;;;;;17.58;66.33;98587.81;8283552;28;20250;-74
2022/10/26 18:46:52;;;;;;;0.00;0.00;;;;;;;17.54;66.84;98590.75;8283602;28;20245;-74
2022/10/26 18:50:57;;;;;;;0.00;0.00;;;;;;;17.55;66.30;98600.25;8283616;28;20235;-75
2022/10/26 18:55:00;;;;;;;0.00;0.00;;;;;;;17.49;66.64;98593.63;8283773;28;20231;-75
2022/10/26 18:59:04;;;;;;;0.00;0.00;;;;;;;17.47;66.32;98592.88;8283722;28;20236;-75
2022/10/26 19:03:07;;;;;;;0.00;0.00;;;;;;;17.42;66.67;98596.72;8282960;28;20246;-75
2022/10/26 19:07:11;;;;;;;0.00;0.00;;;;;;;17.39;67.05;98609.06;8283553;28;20237;-75
2022/10/26 19:11:15;;;;;;;0.00;0.00;;;;;;;17.21;67.18;98612.84;8283030;28;20433;-75
2022/10/26 19:15:18;;;;;;;0.00;0.00;;;;;;;17.24;67.01;98617.03;8283308;28;20305;-75
2022/10/26 19:19:21;;;;;;;0.00;0.00;;;;;;;17.22;66.70;98621.53;8283155;28;20233;-75
2022/10/26 19:23:25;;;;;;;0.00;0.00;;;;;;;17.20;66.96;98635.53;8282988;28;20441;-75